Jacksonville, FL (32216)

8:41 PM EST on December 22, 2014 (GMT -0500)
San Marco | Change Station
CLOSE
Current Station
Personal Weather Station
Location: Jacksonville, FL
Elevation: 10 ft
Nearby Weather Stations

Elev 10 ft 30.30 °N, 81.64 °W | Updated 2 seconds ago

Overcast
Overcast
65.1 °F
Feels Like 65.1 °F
N
0.0
Wind Variable Wind from East
Gusts 0.0 mph

Today
High -- | Low -- °F
--% Chance of Precip.
Yesterday
High -- | Low -- °F
Precip. -- in
7:19 AM 5:30 PM
New Moon, 1% visible
Pressure 29.93 in
Visibility 10.0 miles
Clouds Overcast 2000 ft
Dew Point 64 °F
Humidity 98%
Rainfall 0.00 in
Snow Depth Not available.
UV 0 out of 12
Pollen .50 out of 12
Air Quality Not available.
Flu Activity Not available.
SPECI KCRG 230136Z 10003KT 10SM VCTS OVC020 18/18 A2993 RMK AO2 LTG DSNT W RAE17 P0001 T01830178

More Conditions Fewer Conditions

Pressure 29.93 in
Visibility 10.0 miles
Clouds Overcast 2000 ft
Dew Point 64 °F
Humidity 98%
Rainfall 0.00 in
Snow Depth Not available.
UV 0 out of 12
Pollen .50 out of 12
Air Quality Not available.
Flu Activity Not available.
SPECI KCRG 230136Z 10003KT 10SM VCTS OVC020 18/18 A2993 RMK AO2 LTG DSNT W RAE17 P0001 T01830178

More Conditions Fewer Conditions

10-Day Weather Forecast

Almanac

Astronomy

Dec. 22, 2014 Rise Set
Actual Time
Civil Twilight
Nautical Twilight
Astronomical Twilight
Moon
Length of Visible Light
Length of Day
Tomorrow will be .
, % of the Moon is Illuminated

Today's Extremes

State Highs State Lows

Community

WunderPhotos

Upload Photos

1,779,753 photos uploaded!

WunderBlogs® & News

Nearby

Air Quality

  Air Quality AQ Index Pollutant
Not available.

Snow Depth

Station Depth Elevation

Earthquake Activity

City Distance Mag. Time & Date
Minimum magnitude displayed is 2.5.

Coastal Water Temperatures

Place Temperature

Nearby Weather Stations